sensor_id;sensor_type;location;lat;lon;timestamp;temperature;humidity
439;DHT22;206;48.782;9.252;2023-06-10T00:00:34;21.90;22.30
439;DHT22;206;48.782;9.252;2023-06-10T00:02:59;21.80;22.40
439;DHT22;206;48.782;9.252;2023-06-10T00:05:25;21.70;22.80
439;DHT22;206;48.782;9.252;2023-06-10T00:07:55;21.60;22.80
439;DHT22;206;48.782;9.252;2023-06-10T00:10:22;21.40;23.30
439;DHT22;206;48.782;9.252;2023-06-10T00:12:47;21.40;23.60
439;DHT22;206;48.782;9.252;2023-06-10T00:15:13;21.30;23.40
439;DHT22;206;48.782;9.252;2023-06-10T00:17:39;21.20;23.80
439;DHT22;206;48.782;9.252;2023-06-10T00:20:07;21.10;23.30
439;DHT22;206;48.782;9.252;2023-06-10T00:22:34;21.10;23.80
439;DHT22;206;48.782;9.252;2023-06-10T00:25:00;21.10;24.10
439;DHT22;206;48.782;9.252;2023-06-10T00:27:25;21.10;24.60
439;DHT22;206;48.782;9.252;2023-06-10T00:29:56;21.00;24.50
439;DHT22;206;48.782;9.252;2023-06-10T00:32:22;20.90;24.50
439;DHT22;206;48.782;9.252;2023-06-10T00:34:47;20.80;24.90
439;DHT22;206;48.782;9.252;2023-06-10T00:37:13;20.80;24.60
439;DHT22;206;48.782;9.252;2023-06-10T00:39:39;20.80;25.30
439;DHT22;206;48.782;9.252;2023-06-10T00:42:04;20.70;25.60
439;DHT22;206;48.782;9.252;2023-06-10T00:44:32;20.70;25.20
439;DHT22;206;48.782;9.252;2023-06-10T00:46:58;20.70;25.40
439;DHT22;206;48.782;9.252;2023-06-10T00:49:23;20.70;25.50
439;DHT22;206;48.782;9.252;2023-06-10T00:51:51;20.80;25.30
439;DHT22;206;48.782;9.252;2023-06-10T00:54:17;20.80;25.30
439;DHT22;206;48.782;9.252;2023-06-10T00:56:43;20.70;25.50
439;DHT22;206;48.782;9.252;2023-06-10T00:59:09;20.60;25.80
439;DHT22;206;48.782;9.252;2023-06-10T01:01:35;20.70;25.90
439;DHT22;206;48.782;9.252;2023-06-10T01:04:03;20.70;25.30
439;DHT22;206;48.782;9.252;2023-06-10T01:06:43;20.60;25.60
439;DHT22;206;48.782;9.252;2023-06-10T01:09:23;20.50;25.80
439;DHT22;206;48.782;9.252;2023-06-10T01:12:05;20.50;26.20
439;DHT22;206;48.782;9.252;2023-06-10T01:14:38;20.60;26.20
439;DHT22;206;48.782;9.252;2023-06-10T01:17:10;20.50;26.20
439;DHT22;206;48.782;9.252;2023-06-10T01:19:36;20.50;26.70
439;DHT22;206;48.782;9.252;2023-06-10T01:22:02;20.50;26.60
439;DHT22;206;48.782;9.252;2023-06-10T01:24:28;20.40;26.70
439;DHT22;206;48.782;9.252;2023-06-10T01:27:00;20.40;26.60
439;DHT22;206;48.782;9.252;2023-06-10T01:29:45;20.40;26.90
439;DHT22;206;48.782;9.252;2023-06-10T01:32:18;20.40;26.90
439;DHT22;206;48.782;9.252;2023-06-10T01:34:47;20.40;27.10
439;DHT22;206;48.782;9.252;2023-06-10T01:37:17;20.40;26.80
439;DHT22;206;48.782;9.252;2023-06-10T01:39:45;20.30;26.80
439;DHT22;206;48.782;9.252;2023-06-10T01:42:11;20.30;26.80
439;DHT22;206;48.782;9.252;2023-06-10T01:44:39;20.20;26.80
439;DHT22;206;48.782;9.252;2023-06-10T01:47:05;20.20;27.10
439;DHT22;206;48.782;9.252;2023-06-10T01:49:30;20.20;27.40
439;DHT22;206;48.782;9.252;2023-06-10T01:51:56;20.20;27.40
439;DHT22;206;48.782;9.252;2023-06-10T01:54:21;20.20;27.40
439;DHT22;206;48.782;9.252;2023-06-10T01:56:47;20.10;27.50
439;DHT22;206;48.782;9.252;2023-06-10T01:59:13;20.10;27.70
439;DHT22;206;48.782;9.252;2023-06-10T02:01:38;20.20;27.70
439;DHT22;206;48.782;9.252;2023-06-10T02:04:04;20.10;28.00
439;DHT22;206;48.782;9.252;2023-06-10T02:06:29;20.00;28.30
439;DHT22;206;48.782;9.252;2023-06-10T02:08:55;19.90;28.50
439;DHT22;206;48.782;9.252;2023-06-10T02:11:21;20.00;28.20
439;DHT22;206;48.782;9.252;2023-06-10T02:13:47;20.00;28.10
439;DHT22;206;48.782;9.252;2023-06-10T02:16:12;19.90;28.30
439;DHT22;206;48.782;9.252;2023-06-10T02:18:41;19.90;28.60
439;DHT22;206;48.782;9.252;2023-06-10T02:21:08;19.90;28.40
439;DHT22;206;48.782;9.252;2023-06-10T02:23:34;20.00;28.70
439;DHT22;206;48.782;9.252;2023-06-10T02:26:00;20.00;28.30
439;DHT22;206;48.782;9.252;2023-06-10T02:28:26;19.80;28.20
439;DHT22;206;48.782;9.252;2023-06-10T02:30:52;19.80;28.70
439;DHT22;206;48.782;9.252;2023-06-10T02:33:17;19.80;28.80
439;DHT22;206;48.782;9.252;2023-06-10T02:35:43;19.80;28.90
439;DHT22;206;48.782;9.252;2023-06-10T02:38:09;19.80;28.50
439;DHT22;206;48.782;9.252;2023-06-10T02:40:35;19.80;28.70
439;DHT22;206;48.782;9.252;2023-06-10T02:43:00;19.80;28.10
439;DHT22;206;48.782;9.252;2023-06-10T02:45:26;19.90;28.10
439;DHT22;206;48.782;9.252;2023-06-10T02:47:51;19.80;28.50
439;DHT22;206;48.782;9.252;2023-06-10T02:50:17;19.80;28.70
439;DHT22;206;48.782;9.252;2023-06-10T02:52:43;19.80;29.50
439;DHT22;206;48.782;9.252;2023-06-10T02:55:09;19.70;29.00
439;DHT22;206;48.782;9.252;2023-06-10T02:57:35;19.60;29.10
439;DHT22;206;48.782;9.252;2023-06-10T03:00:01;19.60;29.10
439;DHT22;206;48.782;9.252;2023-06-10T03:02:27;19.50;29.10
439;DHT22;206;48.782;9.252;2023-06-10T03:04:56;19.50;29.10
439;DHT22;206;48.782;9.252;2023-06-10T03:07:22;19.50;29.50
439;DHT22;206;48.782;9.252;2023-06-10T03:09:48;19.50;29.40
439;DHT22;206;48.782;9.252;2023-06-10T03:12:14;19.50;29.10
439;DHT22;206;48.782;9.252;2023-06-10T03:14:40;19.50;29.20
439;DHT22;206;48.782;9.252;2023-06-10T03:17:06;19.50;29.20
439;DHT22;206;48.782;9.252;2023-06-10T03:19:34;19.50;29.90
439;DHT22;206;48.782;9.252;2023-06-10T03:22:10;19.50;29.70
439;DHT22;206;48.782;9.252;2023-06-10T03:24:36;19.50;29.40
439;DHT22;206;48.782;9.252;2023-06-10T03:27:08;19.40;29.80
439;DHT22;206;48.782;9.252;2023-06-10T03:29:35;19.40;29.80
439;DHT22;206;48.782;9.252;2023-06-10T03:32:01;19.40;29.60
439;DHT22;206;48.782;9.252;2023-06-10T03:34:27;19.40;29.90
439;DHT22;206;48.782;9.252;2023-06-10T03:36:52;19.40;29.80
439;DHT22;206;48.782;9.252;2023-06-10T03:39:18;19.30;29.90
439;DHT22;206;48.782;9.252;2023-06-10T03:41:44;19.30;30.10
439;DHT22;206;48.782;9.252;2023-06-10T03:44:09;19.20;30.90
439;DHT22;206;48.782;9.252;2023-06-10T03:46:35;19.10;31.60
439;DHT22;206;48.782;9.252;2023-06-10T03:49:01;19.10;31.60
439;DHT22;206;48.782;9.252;2023-06-10T03:51:27;19.10;31.60
439;DHT22;206;48.782;9.252;2023-06-10T03:53:52;19.00;32.30
439;DHT22;206;48.782;9.252;2023-06-10T03:56:18;19.00;33.10
439;DHT22;206;48.782;9.252;2023-06-10T03:58:44;19.00;32.70
439;DHT22;206;48.782;9.252;2023-06-10T04:01:10;19.00;32.70
439;DHT22;206;48.782;9.252;2023-06-10T04:03:36;18.90;33.40
439;DHT22;206;48.782;9.252;2023-06-10T04:06:01;19.00;33.30
439;DHT22;206;48.782;9.252;2023-06-10T04:08:28;19.00;33.30
439;DHT22;206;48.782;9.252;2023-06-10T04:10:53;18.90;33.70
439;DHT22;206;48.782;9.252;2023-06-10T04:13:19;18.90;34.20
439;DHT22;206;48.782;9.252;2023-06-10T04:15:45;18.90;34.50
439;DHT22;206;48.782;9.252;2023-06-10T04:18:10;18.90;35.00
439;DHT22;206;48.782;9.252;2023-06-10T04:20:36;19.00;34.50
439;DHT22;206;48.782;9.252;2023-06-10T04:23:02;19.00;34.60
439;DHT22;206;48.782;9.252;2023-06-10T04:25:27;18.90;34.80
439;DHT22;206;48.782;9.252;2023-06-10T04:27:54;19.00;34.80
439;DHT22;206;48.782;9.252;2023-06-10T04:30:20;19.00;34.00
439;DHT22;206;48.782;9.252;2023-06-10T04:32:45;19.00;34.20
439;DHT22;206;48.782;9.252;2023-06-10T04:35:12;19.10;34.70
439;DHT22;206;48.782;9.252;2023-06-10T04:37:39;19.20;34.60
439;DHT22;206;48.782;9.252;2023-06-10T04:40:06;19.20;34.30
439;DHT22;206;48.782;9.252;2023-06-10T04:42:32;19.20;34.60
439;DHT22;206;48.782;9.252;2023-06-10T04:44:57;19.10;34.60
439;DHT22;206;48.782;9.252;2023-06-10T04:47:23;19.10;35.40
439;DHT22;206;48.782;9.252;2023-06-10T04:49:48;19.10;35.90
439;DHT22;206;48.782;9.252;2023-06-10T04:52:14;19.20;35.90
439;DHT22;206;48.782;9.252;2023-06-10T04:54:40;19.30;35.10
439;DHT22;206;48.782;9.252;2023-06-10T04:57:06;19.40;34.50
439;DHT22;206;48.782;9.252;2023-06-10T04:59:33;19.50;33.90
439;DHT22;206;48.782;9.252;2023-06-10T05:02:03;19.50;33.20
439;DHT22;206;48.782;9.252;2023-06-10T05:04:28;19.60;32.50
439;DHT22;206;48.782;9.252;2023-06-10T05:06:55;19.70;32.20
439;DHT22;206;48.782;9.252;2023-06-10T05:09:20;19.60;32.10
439;DHT22;206;48.782;9.252;2023-06-10T05:11:46;19.70;32.20
439;DHT22;206;48.782;9.252;2023-06-10T05:14:12;19.70;32.20
439;DHT22;206;48.782;9.252;2023-06-10T05:16:38;19.80;33.00
439;DHT22;206;48.782;9.252;2023-06-10T05:19:04;19.90;32.30
439;DHT22;206;48.782;9.252;2023-06-10T05:21:30;20.00;32.40
439;DHT22;206;48.782;9.252;2023-06-10T05:23:55;20.20;32.00
439;DHT22;206;48.782;9.252;2023-06-10T05:26:21;20.40;31.30
439;DHT22;206;48.782;9.252;2023-06-10T05:28:47;20.60;30.00
439;DHT22;206;48.782;9.252;2023-06-10T05:31:13;20.90;29.30
439;DHT22;206;48.782;9.252;2023-06-10T05:33:39;21.10;28.70
439;DHT22;206;48.782;9.252;2023-06-10T05:36:05;21.20;28.00
439;DHT22;206;48.782;9.252;2023-06-10T05:38:31;21.30;27.60
439;DHT22;206;48.782;9.252;2023-06-10T05:40:56;21.40;27.30
439;DHT22;206;48.782;9.252;2023-06-10T05:43:24;21.60;27.00
439;DHT22;206;48.782;9.252;2023-06-10T05:45:50;21.80;26.60
439;DHT22;206;48.782;9.252;2023-06-10T05:48:15;21.90;26.20
439;DHT22;206;48.782;9.252;2023-06-10T05:50:41;22.00;26.00
439;DHT22;206;48.782;9.252;2023-06-10T05:53:08;22.10;25.80
439;DHT22;206;48.782;9.252;2023-06-10T05:55:44;22.10;25.70
439;DHT22;206;48.782;9.252;2023-06-10T05:58:09;22.20;25.80
439;DHT22;206;48.782;9.252;2023-06-10T06:00:35;22.20;25.90
439;DHT22;206;48.782;9.252;2023-06-10T06:03:01;22.20;25.90
439;DHT22;206;48.782;9.252;2023-06-10T06:05:27;22.30;26.00
439;DHT22;206;48.782;9.252;2023-06-10T06:07:52;22.40;25.50
439;DHT22;206;48.782;9.252;2023-06-10T06:10:18;22.50;25.50
439;DHT22;206;48.782;9.252;2023-06-10T06:12:44;22.60;25.60
439;DHT22;206;48.782;9.252;2023-06-10T06:15:10;22.60;25.60
439;DHT22;206;48.782;9.252;2023-06-10T06:17:36;22.80;25.40
439;DHT22;206;48.782;9.252;2023-06-10T06:20:03;22.90;24.80
439;DHT22;206;48.782;9.252;2023-06-10T06:22:29;23.20;24.70
439;DHT22;206;48.782;9.252;2023-06-10T06:24:54;23.50;24.50
439;DHT22;206;48.782;9.252;2023-06-10T06:27:20;23.70;23.90
439;DHT22;206;48.782;9.252;2023-06-10T06:29:46;24.00;23.50
439;DHT22;206;48.782;9.252;2023-06-10T06:32:12;24.30;22.90
439;DHT22;206;48.782;9.252;2023-06-10T06:34:37;24.50;22.40
439;DHT22;206;48.782;9.252;2023-06-10T06:37:03;24.70;21.80
439;DHT22;206;48.782;9.252;2023-06-10T06:39:29;25.00;21.50
439;DHT22;206;48.782;9.252;2023-06-10T06:41:54;25.20;21.20
439;DHT22;206;48.782;9.252;2023-06-10T06:44:20;25.30;20.10
439;DHT22;206;48.782;9.252;2023-06-10T06:46:45;25.50;19.60
439;DHT22;206;48.782;9.252;2023-06-10T06:49:11;25.70;19.20
439;DHT22;206;48.782;9.252;2023-06-10T06:51:37;25.90;19.30
439;DHT22;206;48.782;9.252;2023-06-10T06:54:02;26.00;19.30
439;DHT22;206;48.782;9.252;2023-06-10T06:56:28;26.30;18.90
439;DHT22;206;48.782;9.252;2023-06-10T06:58:54;26.50;18.30
439;DHT22;206;48.782;9.252;2023-06-10T07:01:20;26.70;17.90
439;DHT22;206;48.782;9.252;2023-06-10T07:03:45;26.90;17.50
439;DHT22;206;48.782;9.252;2023-06-10T07:06:13;27.10;17.20
439;DHT22;206;48.782;9.252;2023-06-10T07:08:38;27.30;16.70
439;DHT22;206;48.782;9.252;2023-06-10T07:11:04;27.40;16.40
439;DHT22;206;48.782;9.252;2023-06-10T07:13:29;27.30;16.20
439;DHT22;206;48.782;9.252;2023-06-10T07:15:55;27.20;16.50
439;DHT22;206;48.782;9.252;2023-06-10T07:18:20;27.20;16.60
439;DHT22;206;48.782;9.252;2023-06-10T07:20:46;27.40;16.30
439;DHT22;206;48.782;9.252;2023-06-10T07:23:12;27.50;15.80
439;DHT22;206;48.782;9.252;2023-06-10T07:25:37;27.70;15.60
439;DHT22;206;48.782;9.252;2023-06-10T07:28:03;27.90;15.10
439;DHT22;206;48.782;9.252;2023-06-10T07:30:29;28.00;15.10
439;DHT22;206;48.782;9.252;2023-06-10T07:32:54;28.20;14.90
439;DHT22;206;48.782;9.252;2023-06-10T07:35:21;28.40;14.50
439;DHT22;206;48.782;9.252;2023-06-10T07:37:47;28.50;13.90
439;DHT22;206;48.782;9.252;2023-06-10T07:40:12;28.50;15.20
439;DHT22;206;48.782;9.252;2023-06-10T07:42:38;28.50;14.80
439;DHT22;206;48.782;9.252;2023-06-10T07:45:04;28.40;15.30
439;DHT22;206;48.782;9.252;2023-06-10T07:47:32;28.40;16.00
439;DHT22;206;48.782;9.252;2023-06-10T07:49:58;28.40;15.00
439;DHT22;206;48.782;9.252;2023-06-10T07:52:24;28.40;15.40
439;DHT22;206;48.782;9.252;2023-06-10T07:54:49;27.90;15.40
439;DHT22;206;48.782;9.252;2023-06-10T07:57:15;27.80;15.70
439;DHT22;206;48.782;9.252;2023-06-10T07:59:41;27.80;15.20
439;DHT22;206;48.782;9.252;2023-06-10T08:02:06;27.70;15.90
439;DHT22;206;48.782;9.252;2023-06-10T08:04:32;27.70;15.60
439;DHT22;206;48.782;9.252;2023-06-10T08:07:00;27.50;16.00
439;DHT22;206;48.782;9.252;2023-06-10T08:09:25;27.50;15.30
439;DHT22;206;48.782;9.252;2023-06-10T08:11:51;27.60;15.60
439;DHT22;206;48.782;9.252;2023-06-10T08:14:17;27.50;15.70
439;DHT22;206;48.782;9.252;2023-06-10T08:16:43;27.50;15.50
439;DHT22;206;48.782;9.252;2023-06-10T08:19:09;27.50;15.30
439;DHT22;206;48.782;9.252;2023-06-10T08:21:35;27.40;15.30
439;DHT22;206;48.782;9.252;2023-06-10T08:24:02;27.60;15.50
439;DHT22;206;48.782;9.252;2023-06-10T08:26:28;27.70;15.10
439;DHT22;206;48.782;9.252;2023-06-10T08:28:54;27.90;14.80
439;DHT22;206;48.782;9.252;2023-06-10T08:31:20;28.10;14.20
439;DHT22;206;48.782;9.252;2023-06-10T08:33:46;28.20;13.80
439;DHT22;206;48.782;9.252;2023-06-10T08:36:12;28.20;14.10
439;DHT22;206;48.782;9.252;2023-06-10T08:38:38;28.20;13.80
439;DHT22;206;48.782;9.252;2023-06-10T08:41:05;27.90;13.70
439;DHT22;206;48.782;9.252;2023-06-10T08:43:42;27.60;14.60
439;DHT22;206;48.782;9.252;2023-06-10T08:46:09;27.10;15.30
439;DHT22;206;48.782;9.252;2023-06-10T08:48:41;27.20;15.50
439;DHT22;206;48.782;9.252;2023-06-10T08:51:10;27.30;15.80
439;DHT22;206;48.782;9.252;2023-06-10T08:53:38;27.40;15.30
439;DHT22;206;48.782;9.252;2023-06-10T08:56:10;27.50;15.00
439;DHT22;206;48.782;9.252;2023-06-10T08:58:36;27.70;14.30
439;DHT22;206;48.782;9.252;2023-06-10T09:01:07;27.70;14.10
439;DHT22;206;48.782;9.252;2023-06-10T09:03:35;27.60;14.20
439;DHT22;206;48.782;9.252;2023-06-10T09:06:04;27.80;14.10
439;DHT22;206;48.782;9.252;2023-06-10T09:08:30;27.80;13.90
439;DHT22;206;48.782;9.252;2023-06-10T09:10:57;27.80;13.80
439;DHT22;206;48.782;9.252;2023-06-10T09:13:22;27.70;13.80
439;DHT22;206;48.782;9.252;2023-06-10T09:15:48;27.70;13.80
439;DHT22;206;48.782;9.252;2023-06-10T09:18:16;27.70;14.50
439;DHT22;206;48.782;9.252;2023-06-10T09:20:43;27.60;14.50
439;DHT22;206;48.782;9.252;2023-06-10T09:23:09;27.60;14.60
439;DHT22;206;48.782;9.252;2023-06-10T09:25:36;27.60;13.80
439;DHT22;206;48.782;9.252;2023-06-10T09:28:03;27.60;14.00
439;DHT22;206;48.782;9.252;2023-06-10T09:30:30;27.70;14.00
439;DHT22;206;48.782;9.252;2023-06-10T09:32:59;27.70;14.20
439;DHT22;206;48.782;9.252;2023-06-10T09:35:26;27.80;13.90
439;DHT22;206;48.782;9.252;2023-06-10T09:37:56;27.60;14.30
439;DHT22;206;48.782;9.252;2023-06-10T09:40:22;27.70;13.70
439;DHT22;206;48.782;9.252;2023-06-10T09:42:56;27.90;13.60
439;DHT22;206;48.782;9.252;2023-06-10T09:45:22;27.90;13.30
439;DHT22;206;48.782;9.252;2023-06-10T09:47:54;27.90;13.80
439;DHT22;206;48.782;9.252;2023-06-10T09:50:21;28.00;13.80
439;DHT22;206;48.782;9.252;2023-06-10T09:52:46;28.20;13.90
439;DHT22;206;48.782;9.252;2023-06-10T09:55:13;28.20;13.40
439;DHT22;206;48.782;9.252;2023-06-10T09:57:39;28.40;12.80
439;DHT22;206;48.782;9.252;2023-06-10T10:00:10;28.50;12.90
439;DHT22;206;48.782;9.252;2023-06-10T10:02:50;28.60;12.90
439;DHT22;206;48.782;9.252;2023-06-10T10:05:17;28.50;12.70
439;DHT22;206;48.782;9.252;2023-06-10T10:07:43;28.30;13.30
439;DHT22;206;48.782;9.252;2023-06-10T10:10:10;28.30;13.60
439;DHT22;206;48.782;9.252;2023-06-10T10:12:39;28.30;12.90
439;DHT22;206;48.782;9.252;2023-06-10T10:15:07;28.30;13.30
439;DHT22;206;48.782;9.252;2023-06-10T10:17:34;28.20;13.10
439;DHT22;206;48.782;9.252;2023-06-10T10:20:05;28.10;13.60
439;DHT22;206;48.782;9.252;2023-06-10T10:22:38;28.20;13.10
439;DHT22;206;48.782;9.252;2023-06-10T10:25:16;28.20;13.10
439;DHT22;206;48.782;9.252;2023-06-10T10:27:51;28.30;12.80
439;DHT22;206;48.782;9.252;2023-06-10T10:30:20;28.30;12.40
439;DHT22;206;48.782;9.252;2023-06-10T10:32:57;28.30;12.10
439;DHT22;206;48.782;9.252;2023-06-10T10:35:30;28.20;12.80
439;DHT22;206;48.782;9.252;2023-06-10T10:37:58;28.10;13.10
439;DHT22;206;48.782;9.252;2023-06-10T10:40:25;28.10;11.80
439;DHT22;206;48.782;9.252;2023-06-10T10:42:55;28.10;11.80
439;DHT22;206;48.782;9.252;2023-06-10T10:45:21;28.10;11.80
439;DHT22;206;48.782;9.252;2023-06-10T10:47:52;28.10;11.80
439;DHT22;206;48.782;9.252;2023-06-10T10:50:19;28.10;11.80
439;DHT22;206;48.782;9.252;2023-06-10T10:52:54;28.20;11.80
439;DHT22;206;48.782;9.252;2023-06-10T10:55:24;28.40;11.90
439;DHT22;206;48.782;9.252;2023-06-10T10:57:55;28.30;11.90
439;DHT22;206;48.782;9.252;2023-06-10T11:00:27;28.50;12.00
439;DHT22;206;48.782;9.252;2023-06-10T11:03:04;28.60;12.00
439;DHT22;206;48.782;9.252;2023-06-10T11:08:03;29.00;10.60
439;DHT22;206;48.782;9.252;2023-06-10T11:12:56;28.80;12.20
439;DHT22;206;48.782;9.252;2023-06-10T11:15:24;28.80;12.10
439;DHT22;206;48.782;9.252;2023-06-10T11:18:12;28.80;12.10
439;DHT22;206;48.782;9.252;2023-06-10T11:20:51;28.80;11.80
439;DHT22;206;48.782;9.252;2023-06-10T11:26:14;29.10;11.10
439;DHT22;206;48.782;9.252;2023-06-10T11:28:41;29.10;10.60
439;DHT22;206;48.782;9.252;2023-06-10T11:31:08;29.00;10.60
439;DHT22;206;48.782;9.252;2023-06-10T11:33:38;28.90;10.70
439;DHT22;206;48.782;9.252;2023-06-10T11:36:07;29.10;10.40
439;DHT22;206;48.782;9.252;2023-06-10T11:38:32;29.20;10.20
439;DHT22;206;48.782;9.252;2023-06-10T11:40:58;29.30;9.90
439;DHT22;206;48.782;9.252;2023-06-10T11:43:24;29.30;10.00
439;DHT22;206;48.782;9.252;2023-06-10T11:45:54;29.40;9.80
439;DHT22;206;48.782;9.252;2023-06-10T11:48:20;29.30;10.00
439;DHT22;206;48.782;9.252;2023-06-10T11:50:46;29.40;9.90
439;DHT22;206;48.782;9.252;2023-06-10T11:53:11;29.50;9.50
439;DHT22;206;48.782;9.252;2023-06-10T11:58:15;29.70;9.20
439;DHT22;206;48.782;9.252;2023-06-10T12:00:54;29.70;8.80
439;DHT22;206;48.782;9.252;2023-06-10T12:03:23;29.60;9.10
439;DHT22;206;48.782;9.252;2023-06-10T12:06:05;29.60;8.70
439;DHT22;206;48.782;9.252;2023-06-10T12:08:31;29.40;9.10
439;DHT22;206;48.782;9.252;2023-06-10T12:10:57;29.30;9.40
439;DHT22;206;48.782;9.252;2023-06-10T12:13:26;29.10;9.40
439;DHT22;206;48.782;9.252;2023-06-10T12:15:52;29.10;9.90
439;DHT22;206;48.782;9.252;2023-06-10T12:18:22;29.20;9.70
439;DHT22;206;48.782;9.252;2023-06-10T12:20:49;29.30;9.50
439;DHT22;206;48.782;9.252;2023-06-10T12:23:59;29.40;9.30
439;DHT22;206;48.782;9.252;2023-06-10T12:26:53;29.40;9.40
439;DHT22;206;48.782;9.252;2023-06-10T12:29:24;29.30;9.40
439;DHT22;206;48.782;9.252;2023-06-10T12:32:03;29.20;9.40
439;DHT22;206;48.782;9.252;2023-06-10T12:34:32;29.10;9.20
439;DHT22;206;48.782;9.252;2023-06-10T12:36:59;29.10;9.10
439;DHT22;206;48.782;9.252;2023-06-10T12:39:25;29.20;9.20
439;DHT22;206;48.782;9.252;2023-06-10T12:41:52;29.30;9.10
439;DHT22;206;48.782;9.252;2023-06-10T12:44:17;29.10;9.60
439;DHT22;206;48.782;9.252;2023-06-10T12:46:43;29.30;9.70
439;DHT22;206;48.782;9.252;2023-06-10T12:49:19;29.20;9.40
439;DHT22;206;48.782;9.252;2023-06-10T12:51:45;29.40;9.30
439;DHT22;206;48.782;9.252;2023-06-10T12:54:10;29.40;9.00
439;DHT22;206;48.782;9.252;2023-06-10T12:56:36;29.30;9.00
439;DHT22;206;48.782;9.252;2023-06-10T12:59:02;29.40;9.00
439;DHT22;206;48.782;9.252;2023-06-10T13:01:31;29.50;8.90
439;DHT22;206;48.782;9.252;2023-06-10T13:03:58;29.70;8.50
439;DHT22;206;48.782;9.252;2023-06-10T13:06:23;29.80;8.70
439;DHT22;206;48.782;9.252;2023-06-10T13:08:49;29.90;8.70
439;DHT22;206;48.782;9.252;2023-06-10T13:11:16;29.90;8.30
439;DHT22;206;48.782;9.252;2023-06-10T13:13:42;30.00;8.30
439;DHT22;206;48.782;9.252;2023-06-10T13:16:08;30.00;8.50
439;DHT22;206;48.782;9.252;2023-06-10T13:18:34;30.10;7.60
439;DHT22;206;48.782;9.252;2023-06-10T13:21:03;30.20;7.60
439;DHT22;206;48.782;9.252;2023-06-10T13:23:29;30.20;6.80
439;DHT22;206;48.782;9.252;2023-06-10T13:25:56;30.30;6.90
439;DHT22;206;48.782;9.252;2023-06-10T13:28:22;30.40;6.60
439;DHT22;206;48.782;9.252;2023-06-10T13:30:48;30.60;7.30
439;DHT22;206;48.782;9.252;2023-06-10T13:33:14;30.60;6.90
439;DHT22;206;48.782;9.252;2023-06-10T13:35:39;30.70;6.50
439;DHT22;206;48.782;9.252;2023-06-10T13:38:05;30.50;6.70
439;DHT22;206;48.782;9.252;2023-06-10T13:40:32;30.40;7.10
439;DHT22;206;48.782;9.252;2023-06-10T13:42:58;30.10;7.40
439;DHT22;206;48.782;9.252;2023-06-10T13:45:23;30.10;7.30
439;DHT22;206;48.782;9.252;2023-06-10T13:47:50;30.10;6.50
439;DHT22;206;48.782;9.252;2023-06-10T13:50:15;30.00;6.60
439;DHT22;206;48.782;9.252;2023-06-10T13:52:41;30.00;6.60
439;DHT22;206;48.782;9.252;2023-06-10T13:55:07;29.90;7.00
439;DHT22;206;48.782;9.252;2023-06-10T13:57:33;29.90;7.50
439;DHT22;206;48.782;9.252;2023-06-10T13:59:58;30.10;6.90
439;DHT22;206;48.782;9.252;2023-06-10T14:02:24;30.20;6.60
439;DHT22;206;48.782;9.252;2023-06-10T14:04:49;30.30;6.80
439;DHT22;206;48.782;9.252;2023-06-10T14:07:15;30.30;7.30
439;DHT22;206;48.782;9.252;2023-06-10T14:09:40;30.00;7.50
439;DHT22;206;48.782;9.252;2023-06-10T14:12:06;29.80;7.80
439;DHT22;206;48.782;9.252;2023-06-10T14:14:32;29.70;7.80
439;DHT22;206;48.782;9.252;2023-06-10T14:16:59;29.50;8.00
439;DHT22;206;48.782;9.252;2023-06-10T14:19:24;29.50;8.40
439;DHT22;206;48.782;9.252;2023-06-10T14:21:50;29.50;8.40
439;DHT22;206;48.782;9.252;2023-06-10T14:24:15;29.60;8.20
439;DHT22;206;48.782;9.252;2023-06-10T14:26:41;29.70;7.90
439;DHT22;206;48.782;9.252;2023-06-10T14:29:07;29.80;7.60
439;DHT22;206;48.782;9.252;2023-06-10T14:31:34;29.90;7.50
439;DHT22;206;48.782;9.252;2023-06-10T14:33:59;29.90;7.50
439;DHT22;206;48.782;9.252;2023-06-10T14:36:25;30.00;8.30
439;DHT22;206;48.782;9.252;2023-06-10T14:38:51;30.00;8.00
439;DHT22;206;48.782;9.252;2023-06-10T14:41:16;30.00;7.30
439;DHT22;206;48.782;9.252;2023-06-10T14:43:42;30.00;7.10
439;DHT22;206;48.782;9.252;2023-06-10T14:46:07;29.90;7.40
439;DHT22;206;48.782;9.252;2023-06-10T14:48:33;29.90;7.30
439;DHT22;206;48.782;9.252;2023-06-10T14:50:59;29.90;7.60
439;DHT22;206;48.782;9.252;2023-06-10T14:53:24;29.90;7.50
439;DHT22;206;48.782;9.252;2023-06-10T14:55:50;29.90;7.20
439;DHT22;206;48.782;9.252;2023-06-10T14:58:15;30.00;7.50
439;DHT22;206;48.782;9.252;2023-06-10T15:00:41;30.00;7.70
439;DHT22;206;48.782;9.252;2023-06-10T15:03:07;29.90;8.00
439;DHT22;206;48.782;9.252;2023-06-10T15:05:32;29.90;7.90
439;DHT22;206;48.782;9.252;2023-06-10T15:08:00;29.90;8.10
439;DHT22;206;48.782;9.252;2023-06-10T15:10:25;29.90;8.20
439;DHT22;206;48.782;9.252;2023-06-10T15:12:51;29.80;8.00
439;DHT22;206;48.782;9.252;2023-06-10T15:15:24;29.70;8.10
439;DHT22;206;48.782;9.252;2023-06-10T15:17:54;29.70;7.80
439;DHT22;206;48.782;9.252;2023-06-10T15:20:20;29.60;7.50
439;DHT22;206;48.782;9.252;2023-06-10T15:22:45;29.80;7.90
439;DHT22;206;48.782;9.252;2023-06-10T15:25:11;29.90;7.50
439;DHT22;206;48.782;9.252;2023-06-10T15:27:36;29.90;7.40
439;DHT22;206;48.782;9.252;2023-06-10T15:30:02;29.80;7.70
439;DHT22;206;48.782;9.252;2023-06-10T15:32:28;29.80;7.80
439;DHT22;206;48.782;9.252;2023-06-10T15:34:54;29.80;7.40
439;DHT22;206;48.782;9.252;2023-06-10T15:37:20;29.70;7.90
439;DHT22;206;48.782;9.252;2023-06-10T15:39:46;29.80;8.60
439;DHT22;206;48.782;9.252;2023-06-10T15:42:12;29.90;7.30
439;DHT22;206;48.782;9.252;2023-06-10T15:44:38;29.90;6.80
439;DHT22;206;48.782;9.252;2023-06-10T15:47:04;29.90;6.30
439;DHT22;206;48.782;9.252;2023-06-10T15:49:29;29.80;6.20
439;DHT22;206;48.782;9.252;2023-06-10T15:51:55;29.80;6.30
439;DHT22;206;48.782;9.252;2023-06-10T15:54:21;29.90;6.70
439;DHT22;206;48.782;9.252;2023-06-10T15:56:46;29.90;6.30
439;DHT22;206;48.782;9.252;2023-06-10T15:59:12;29.80;6.50
439;DHT22;206;48.782;9.252;2023-06-10T16:01:37;29.80;6.50
439;DHT22;206;48.782;9.252;2023-06-10T16:04:03;29.60;7.00
439;DHT22;206;48.782;9.252;2023-06-10T16:06:29;29.50;7.20
439;DHT22;206;48.782;9.252;2023-06-10T16:08:55;29.40;7.60
439;DHT22;206;48.782;9.252;2023-06-10T16:11:20;29.30;7.80
439;DHT22;206;48.782;9.252;2023-06-10T16:13:47;29.30;8.00
439;DHT22;206;48.782;9.252;2023-06-10T16:16:12;29.40;8.20
439;DHT22;206;48.782;9.252;2023-06-10T16:18:38;29.40;8.40
439;DHT22;206;48.782;9.252;2023-06-10T16:21:03;29.50;8.20
439;DHT22;206;48.782;9.252;2023-06-10T16:23:29;29.50;8.60
439;DHT22;206;48.782;9.252;2023-06-10T16:25:55;29.50;8.50
439;DHT22;206;48.782;9.252;2023-06-10T16:28:20;29.50;8.30
439;DHT22;206;48.782;9.252;2023-06-10T16:30:46;29.50;8.40
439;DHT22;206;48.782;9.252;2023-06-10T16:33:12;29.50;7.60
439;DHT22;206;48.782;9.252;2023-06-10T16:35:37;29.50;7.10
439;DHT22;206;48.782;9.252;2023-06-10T16:38:03;29.40;6.90
439;DHT22;206;48.782;9.252;2023-06-10T16:40:29;29.40;6.70
439;DHT22;206;48.782;9.252;2023-06-10T16:42:54;29.30;7.00
439;DHT22;206;48.782;9.252;2023-06-10T16:45:20;29.40;6.90
439;DHT22;206;48.782;9.252;2023-06-10T16:47:46;29.40;6.90